createdAt,value
2023-02-11T00:01:40.862Z,94.69
2023-02-11T00:04:09.119Z,94.85
2023-02-11T00:06:38.031Z,95.00
2023-02-11T00:09:08.580Z,95.51
2023-02-11T00:11:36.964Z,95.28
2023-02-11T00:14:08.152Z,94.55
2023-02-11T00:16:37.477Z,95.36
2023-02-11T00:19:08.230Z,95.18
2023-02-11T00:21:37.317Z,95.36
2023-02-11T00:24:07.825Z,95.29
2023-02-11T00:26:37.034Z,95.20
2023-02-11T00:29:07.005Z,95.12
2023-02-11T00:31:36.010Z,94.67
2023-02-11T00:34:05.142Z,95.09
2023-02-11T00:36:34.026Z,95.16
2023-02-11T00:39:02.522Z,95.06
2023-02-11T00:41:32.322Z,95.01
2023-02-11T00:44:05.886Z,95.10
2023-02-11T00:46:34.189Z,94.81
2023-02-11T00:49:03.019Z,95.18
2023-02-11T00:51:31.872Z,95.11
2023-02-11T00:54:01.902Z,94.97
2023-02-11T00:56:30.239Z,95.00
2023-02-11T00:59:00.461Z,95.54
2023-02-11T01:01:30.236Z,95.75
2023-02-11T01:03:58.697Z,95.58
2023-02-11T01:06:27.135Z,95.44
2023-02-11T01:08:55.517Z,95.80
2023-02-11T01:11:26.411Z,95.76
2023-02-11T01:13:55.215Z,95.76
2023-02-11T01:16:24.983Z,95.91
2023-02-11T01:18:53.297Z,95.58
2023-02-11T01:21:23.521Z,96.19
2023-02-11T01:23:52.274Z,96.13
2023-02-11T01:26:20.748Z,96.05
2023-02-11T01:28:49.451Z,95.99
2023-02-11T01:31:18.228Z,96.36
2023-02-11T01:33:49.191Z,96.36
2023-02-11T01:36:19.382Z,96.21
2023-02-11T01:38:50.920Z,95.89
2023-02-11T01:41:19.304Z,96.07
2023-02-11T01:43:50.962Z,96.34
2023-02-11T01:46:28.313Z,95.87
2023-02-11T01:49:04.018Z,95.84
2023-02-11T01:51:37.843Z,95.69
2023-02-11T01:54:26.190Z,96.08
2023-02-11T01:57:16.608Z,96.11
2023-02-11T01:59:55.704Z,96.46
2023-02-11T02:02:28.377Z,96.29
2023-02-11T02:05:08.501Z,96.78
2023-02-11T02:07:44.497Z,96.67
2023-02-11T02:10:19.367Z,96.86
2023-02-11T02:12:47.914Z,96.95
2023-02-11T02:15:22.288Z,96.93
2023-02-11T02:17:58.807Z,97.15
2023-02-11T02:20:53.604Z,96.66
2023-02-11T02:23:39.238Z,96.79
2023-02-11T02:26:34.772Z,96.65
2023-02-11T02:29:41.562Z,97.22
2023-02-11T02:32:31.276Z,96.45
2023-02-11T02:35:12.081Z,96.56
2023-02-11T02:37:49.342Z,97.16
2023-02-11T02:40:22.076Z,96.22
2023-02-11T02:42:52.502Z,96.25
2023-02-11T02:45:22.162Z,96.47
2023-02-11T02:47:51.945Z,95.95
2023-02-11T02:50:31.282Z,96.22
2023-02-11T02:53:16.550Z,96.13
2023-02-11T02:55:57.381Z,96.54
2023-02-11T02:58:47.348Z,96.40
2023-02-11T03:01:22.567Z,96.87
2023-02-11T03:03:59.461Z,96.56
2023-02-11T03:06:33.875Z,96.67
2023-02-11T03:09:11.386Z,97.07
2023-02-11T03:11:41.354Z,96.64
2023-02-11T03:14:13.897Z,96.99
2023-02-11T03:16:43.765Z,96.78
2023-02-11T03:19:16.920Z,96.85
2023-02-11T03:21:47.042Z,96.56
2023-02-11T03:24:21.797Z,97.45
2023-02-11T03:26:54.724Z,97.21
2023-02-11T03:29:34.943Z,97.03
2023-02-11T03:32:12.351Z,97.28
2023-02-11T03:34:46.886Z,97.35
2023-02-11T03:37:21.360Z,97.18
2023-02-11T03:39:58.481Z,97.23
2023-02-11T03:42:31.953Z,97.49
2023-02-11T03:45:06.464Z,97.14
2023-02-11T03:47:39.347Z,97.15
2023-02-11T03:50:12.810Z,97.37
2023-02-11T03:52:46.029Z,97.33
2023-02-11T03:55:18.333Z,97.63
2023-02-11T03:57:50.659Z,97.85
2023-02-11T04:00:19.806Z,97.49
2023-02-11T04:02:48.691Z,97.79
2023-02-11T04:05:18.417Z,97.73
2023-02-11T04:07:46.903Z,97.80
2023-02-11T04:10:15.366Z,97.80
2023-02-11T04:12:43.990Z,97.79
2023-02-11T04:15:12.498Z,97.86
2023-02-11T04:17:41.831Z,97.82
2023-02-11T04:20:14.789Z,98.05
2023-02-11T04:22:44.618Z,97.74
2023-02-11T04:25:14.218Z,97.87
2023-02-11T04:27:45.728Z,98.06
2023-02-11T04:30:14.710Z,97.94
2023-02-11T04:32:43.300Z,97.97
2023-02-11T04:35:12.025Z,97.94
2023-02-11T04:37:40.323Z,97.66
2023-02-11T04:40:11.631Z,97.87
2023-02-11T04:42:40.137Z,97.88
2023-02-11T04:45:09.575Z,97.81
2023-02-11T04:47:38.435Z,97.32
2023-02-11T04:50:08.639Z,97.51
2023-02-11T04:52:38.193Z,97.66
2023-02-11T04:55:07.546Z,97.92
2023-02-11T04:57:39.940Z,97.92
2023-02-11T05:00:10.051Z,97.69
2023-02-11T05:02:38.347Z,97.46
2023-02-11T05:05:07.715Z,97.80
2023-02-11T05:07:36.080Z,97.40
2023-02-11T05:10:05.642Z,97.67
2023-02-11T05:12:36.297Z,98.01
2023-02-11T05:15:09.088Z,97.67
2023-02-11T05:17:37.528Z,97.38
2023-02-11T05:20:06.997Z,97.64
2023-02-11T05:22:35.574Z,97.38
2023-02-11T05:25:05.139Z,97.37
2023-02-11T05:27:35.218Z,97.47
2023-02-11T05:30:06.136Z,97.51
2023-02-11T05:32:34.866Z,97.15
2023-02-11T05:35:10.706Z,97.27
2023-02-11T05:37:39.563Z,97.66
2023-02-11T05:40:10.078Z,98.39
2023-02-11T05:42:40.080Z,98.08
2023-02-11T05:45:14.435Z,97.74
2023-02-11T05:47:44.859Z,97.64
2023-02-11T05:50:13.517Z,97.94
2023-02-11T05:52:42.615Z,98.46
2023-02-11T05:55:11.419Z,97.69
2023-02-11T05:57:40.105Z,97.87
2023-02-11T06:00:11.758Z,97.59
2023-02-11T06:02:40.503Z,97.81
2023-02-11T06:05:11.388Z,97.98
2023-02-11T06:07:40.137Z,97.89
2023-02-11T06:10:09.839Z,98.15
2023-02-11T06:12:38.794Z,97.70
2023-02-11T06:15:09.163Z,97.60
2023-02-11T06:17:38.166Z,97.60
2023-02-11T06:20:09.641Z,97.18
2023-02-11T06:22:38.121Z,97.51
2023-02-11T06:25:07.960Z,98.03
2023-02-11T06:27:36.264Z,97.79
2023-02-11T06:30:05.024Z,98.28
2023-02-11T06:32:46.165Z,97.33
2023-02-11T06:35:16.113Z,97.57
2023-02-11T06:37:44.718Z,97.01
2023-02-11T06:40:20.827Z,96.53
2023-02-11T06:42:53.730Z,96.21
2023-02-11T06:45:21.932Z,95.91
2023-02-11T06:47:52.971Z,95.33
2023-02-11T06:50:24.887Z,95.61
2023-02-11T06:52:53.267Z,95.67
2023-02-11T06:55:21.813Z,95.12
2023-02-11T06:57:50.616Z,95.49
2023-02-11T07:00:20.788Z,95.38
2023-02-11T07:02:49.147Z,95.82
2023-02-11T07:05:19.392Z,95.33
2023-02-11T07:07:48.259Z,95.61
2023-02-11T07:10:16.845Z,95.18
2023-02-11T07:12:45.709Z,94.72
2023-02-11T07:15:14.293Z,95.08
2023-02-11T07:17:42.903Z,95.00
2023-02-11T07:20:14.754Z,94.81
2023-02-11T07:22:44.813Z,94.97
2023-02-11T07:25:14.118Z,94.55
2023-02-11T07:27:44.982Z,94.43
2023-02-11T07:30:14.761Z,94.00
2023-02-11T07:32:43.361Z,94.14
2023-02-11T07:35:12.034Z,93.02
2023-02-11T07:37:41.571Z,93.21
2023-02-11T07:40:13.953Z,92.37
2023-02-11T07:42:44.088Z,92.49
2023-02-11T07:45:14.103Z,91.72
2023-02-11T07:47:43.975Z,91.02
2023-02-11T07:50:16.004Z,91.36
2023-02-11T07:52:45.553Z,91.21
2023-02-11T07:55:17.255Z,90.49
2023-02-11T07:57:45.894Z,89.76
2023-02-11T08:00:16.133Z,88.35
2023-02-11T08:02:44.395Z,88.65
2023-02-11T08:05:12.613Z,88.49
2023-02-11T08:07:41.791Z,88.38
2023-02-11T08:10:10.745Z,87.81
2023-02-11T08:12:41.378Z,87.36
2023-02-11T08:15:10.733Z,87.30
2023-02-11T08:17:41.680Z,86.95
2023-02-11T08:20:12.468Z,86.32
2023-02-11T08:22:42.340Z,85.93
2023-02-11T08:25:24.463Z,85.70
2023-02-11T08:27:54.029Z,85.90
2023-02-11T08:30:26.288Z,85.38
2023-02-11T08:32:55.746Z,85.14
2023-02-11T08:35:26.146Z,85.41
2023-02-11T08:37:55.897Z,84.81
2023-02-11T08:40:26.493Z,85.08
2023-02-11T08:42:56.502Z,84.66
2023-02-11T08:45:25.041Z,84.64
2023-02-11T08:47:53.438Z,84.47
2023-02-11T08:50:22.412Z,84.54
2023-02-11T08:52:51.911Z,84.57
2023-02-11T08:55:21.697Z,83.87
2023-02-11T08:57:49.984Z,83.96
2023-02-11T09:00:22.579Z,83.90
2023-02-11T09:02:51.640Z,85.68
2023-02-11T09:05:20.077Z,82.76
2023-02-11T09:07:49.129Z,82.87
2023-02-11T09:10:17.916Z,82.48
2023-02-11T09:12:48.039Z,81.66
2023-02-11T09:15:16.716Z,80.91
2023-02-11T09:17:48.757Z,79.94
2023-02-11T09:20:17.970Z,79.05
2023-02-11T09:22:49.447Z,78.76
2023-02-11T09:25:19.151Z,76.47
2023-02-11T09:27:47.978Z,75.89
2023-02-11T09:30:16.873Z,73.87
2023-02-11T09:32:46.685Z,74.66
2023-02-11T09:35:15.661Z,72.75
2023-02-11T09:37:45.468Z,72.97
2023-02-11T09:40:15.646Z,72.18
2023-02-11T09:42:49.716Z,71.35
2023-02-11T09:45:22.113Z,71.15
2023-02-11T09:47:57.248Z,69.17
2023-02-11T09:50:31.985Z,68.88
2023-02-11T09:53:04.438Z,68.76
2023-02-11T09:55:37.930Z,67.32
2023-02-11T09:58:14.829Z,67.72
2023-02-11T10:00:47.852Z,68.30
2023-02-11T10:03:35.820Z,67.12
2023-02-11T10:06:30.471Z,65.76
2023-02-11T10:09:08.336Z,64.57
2023-02-11T10:11:47.384Z,64.99
2023-02-11T10:14:38.254Z,62.85
2023-02-11T10:17:16.940Z,61.69
2023-02-11T10:20:06.796Z,61.22
2023-02-11T10:22:43.067Z,61.52
2023-02-11T10:25:22.527Z,61.40
2023-02-11T10:27:52.269Z,61.70
2023-02-11T10:30:30.251Z,61.56
2023-02-11T10:33:04.317Z,61.27
2023-02-11T10:35:40.393Z,61.16
2023-02-11T10:38:10.598Z,61.92
2023-02-11T10:40:39.079Z,60.81
2023-02-11T10:43:13.467Z,60.47
2023-02-11T10:45:45.795Z,60.55
2023-02-11T10:48:42.411Z,60.89
2023-02-11T10:51:23.554Z,61.43
2023-02-11T10:54:14.470Z,61.17
2023-02-11T10:56:47.486Z,60.92
2023-02-11T10:59:22.502Z,59.82
2023-02-11T11:01:54.280Z,59.46
2023-02-11T11:04:35.258Z,58.95
2023-02-11T11:07:19.194Z,59.30
2023-02-11T11:09:55.852Z,59.67
2023-02-11T11:12:30.882Z,60.00
2023-02-11T11:15:16.401Z,60.89
2023-02-11T11:17:44.713Z,60.19
2023-02-11T11:20:22.151Z,60.20
2023-02-11T11:22:56.684Z,60.37
2023-02-11T11:25:28.111Z,60.47
2023-02-11T11:27:58.389Z,60.66
2023-02-11T11:30:33.274Z,60.58
2023-02-11T11:33:05.977Z,59.82
2023-02-11T11:35:34.839Z,58.40
2023-02-11T11:38:06.383Z,57.43
2023-02-11T11:40:36.792Z,56.62
2023-02-11T11:43:22.773Z,55.87
2023-02-11T11:45:56.728Z,55.82
2023-02-11T11:48:29.809Z,55.13
2023-02-11T11:51:01.529Z,55.38
2023-02-11T11:53:40.057Z,55.34
2023-02-11T11:56:15.428Z,55.46
2023-02-11T11:58:44.356Z,55.24
2023-02-11T12:01:31.806Z,53.23
2023-02-11T12:04:19.310Z,53.98
2023-02-11T12:07:03.979Z,54.26
2023-02-11T12:09:46.386Z,54.69
2023-02-11T12:12:32.560Z,54.79
2023-02-11T12:15:13.705Z,54.22
2023-02-11T12:18:02.497Z,54.42
2023-02-11T12:20:44.939Z,54.17
2023-02-11T12:23:27.852Z,53.70
2023-02-11T12:26:05.615Z,53.38
2023-02-11T12:28:42.533Z,52.97
2023-02-11T12:31:23.312Z,52.53
2023-02-11T12:34:10.536Z,52.56
2023-02-11T12:36:54.460Z,52.54
2023-02-11T12:39:33.918Z,52.39
2023-02-11T12:42:38.352Z,52.09
2023-02-11T12:45:21.433Z,51.31
2023-02-11T12:48:06.835Z,51.18
2023-02-11T12:50:41.709Z,49.94
2023-02-11T12:53:28.620Z,49.90
2023-02-11T12:56:02.621Z,49.44
2023-02-11T12:58:47.050Z,49.60
2023-02-11T13:01:20.681Z,49.43
2023-02-11T13:03:58.152Z,49.06
2023-02-11T13:06:31.931Z,48.83
2023-02-11T13:09:08.934Z,49.34
2023-02-11T13:11:41.517Z,49.33
2023-02-11T13:14:20.258Z,47.88
2023-02-11T13:16:51.017Z,46.85
2023-02-11T13:19:30.687Z,47.60
2023-02-11T13:22:08.765Z,47.61
2023-02-11T13:24:48.055Z,47.68
2023-02-11T13:27:35.385Z,46.91
2023-02-11T13:30:28.324Z,45.57
2023-02-11T13:33:21.321Z,44.62
2023-02-11T13:36:11.414Z,45.01
2023-02-11T13:38:40.345Z,44.61
2023-02-11T13:41:18.292Z,44.61
2023-02-11T13:44:00.486Z,43.81
2023-02-11T13:46:32.885Z,44.43
2023-02-11T13:49:02.160Z,44.82
2023-02-11T13:51:39.143Z,45.96
2023-02-11T13:54:12.115Z,45.89
2023-02-11T13:56:44.023Z,45.53
2023-02-11T13:59:54.879Z,46.32
2023-02-11T14:02:46.674Z,45.55
2023-02-11T14:05:48.337Z,46.16
2023-02-11T14:08:40.482Z,46.88
2023-02-11T14:11:49.742Z,46.50
2023-02-11T14:14:24.758Z,46.24
2023-02-11T14:17:21.018Z,46.68
2023-02-11T14:19:52.638Z,46.58
2023-02-11T14:22:26.778Z,46.63
2023-02-11T14:25:00.380Z,46.65
2023-02-11T14:27:51.589Z,47.08
2023-02-11T14:30:50.937Z,47.41
2023-02-11T14:33:48.970Z,47.36
2023-02-11T14:36:47.506Z,47.93
2023-02-11T14:39:23.936Z,48.08
2023-02-11T14:41:54.765Z,48.26
2023-02-11T14:44:24.705Z,47.99
2023-02-11T14:46:54.771Z,48.33
2023-02-11T14:49:28.816Z,48.62
2023-02-11T14:52:06.370Z,48.81
2023-02-11T14:54:36.036Z,48.30
2023-02-11T14:57:11.464Z,48.80
2023-02-11T14:59:41.393Z,49.12
2023-02-11T15:02:26.382Z,49.40
2023-02-11T15:04:56.743Z,49.64
2023-02-11T15:07:27.013Z,49.93
2023-02-11T15:09:56.205Z,50.02
2023-02-11T15:12:27.899Z,50.30
2023-02-11T15:14:59.147Z,50.60
2023-02-11T15:17:31.964Z,50.63
2023-02-11T15:20:03.111Z,50.55
2023-02-11T15:22:37.567Z,50.63
2023-02-11T15:25:12.061Z,50.95
2023-02-11T15:27:43.333Z,51.00
2023-02-11T15:30:35.179Z,50.75
2023-02-11T15:33:07.019Z,51.19
2023-02-11T15:35:38.381Z,51.24
2023-02-11T15:38:09.234Z,51.42
2023-02-11T15:40:38.994Z,51.74
2023-02-11T15:43:09.414Z,52.29
2023-02-11T15:45:41.143Z,52.21
2023-02-11T15:48:13.851Z,52.31
2023-02-11T15:50:46.241Z,52.65
2023-02-11T15:53:31.737Z,52.83
2023-02-11T15:56:06.827Z,53.37
2023-02-11T15:58:39.099Z,53.24
2023-02-11T16:01:09.160Z,53.20
2023-02-11T16:03:38.759Z,53.57
2023-02-11T16:06:22.305Z,53.73
2023-02-11T16:09:07.202Z,54.15
2023-02-11T16:11:59.295Z,54.60
2023-02-11T16:14:33.666Z,55.26
2023-02-11T16:17:07.096Z,55.26
2023-02-11T16:19:45.144Z,55.49
2023-02-11T16:22:20.767Z,55.90
2023-02-11T16:24:52.790Z,55.63
2023-02-11T16:27:24.192Z,56.13
2023-02-11T16:29:53.781Z,56.21
2023-02-11T16:32:25.057Z,56.78
2023-02-11T16:34:55.288Z,56.82
2023-02-11T16:37:28.753Z,57.07
2023-02-11T16:39:59.367Z,57.42
2023-02-11T16:42:30.598Z,57.56
2023-02-11T16:45:00.849Z,57.76
2023-02-11T16:47:33.793Z,57.88
2023-02-11T16:50:04.922Z,58.19
2023-02-11T16:52:34.425Z,59.03
2023-02-11T16:55:05.358Z,59.35
2023-02-11T16:57:34.061Z,59.17
2023-02-11T17:00:02.916Z,59.32
2023-02-11T17:02:34.872Z,59.42
2023-02-11T17:05:06.569Z,59.67
2023-02-11T17:07:36.512Z,59.60
2023-02-11T17:10:22.342Z,59.80
2023-02-11T17:12:53.722Z,59.56
2023-02-11T17:15:22.335Z,59.70
2023-02-11T17:17:52.041Z,59.99
2023-02-11T17:20:21.246Z,59.83
2023-02-11T17:22:50.730Z,59.35
2023-02-11T17:25:23.846Z,58.87
2023-02-11T17:27:54.088Z,59.73
2023-02-11T17:30:23.230Z,59.98
2023-02-11T17:32:53.046Z,59.70
2023-02-11T17:35:21.666Z,59.46
2023-02-11T17:37:51.194Z,59.39
2023-02-11T17:40:24.207Z,59.15
2023-02-11T17:42:52.968Z,59.37
2023-02-11T17:45:22.513Z,59.55
2023-02-11T17:47:53.414Z,59.33
2023-02-11T17:50:22.221Z,59.86
2023-02-11T17:52:51.102Z,59.67
2023-02-11T17:55:21.343Z,59.73
2023-02-11T17:57:50.085Z,59.97
2023-02-11T18:00:20.224Z,60.28
2023-02-11T18:02:48.628Z,60.27
2023-02-11T18:05:17.570Z,60.09
2023-02-11T18:07:46.296Z,59.83
2023-02-11T18:10:15.110Z,59.90
2023-02-11T18:12:45.195Z,59.84
2023-02-11T18:15:14.281Z,59.95
2023-02-11T18:17:43.114Z,60.09
2023-02-11T18:20:12.831Z,60.28
2023-02-11T18:22:41.436Z,60.41
2023-02-11T18:25:11.008Z,60.73
2023-02-11T18:27:40.051Z,61.00
2023-02-11T18:30:16.674Z,60.88
2023-02-11T18:32:46.827Z,61.20
2023-02-11T18:35:16.067Z,61.50
2023-02-11T18:37:45.647Z,61.63
2023-02-11T18:40:16.004Z,61.60
2023-02-11T18:42:46.468Z,61.77
2023-02-11T18:45:16.846Z,61.58
2023-02-11T18:47:45.619Z,61.95
2023-02-11T18:50:16.170Z,61.60
2023-02-11T18:52:45.195Z,61.58
2023-02-11T18:55:14.566Z,61.73
2023-02-11T18:57:43.681Z,62.06
2023-02-11T19:00:20.424Z,61.71
2023-02-11T19:02:55.088Z,61.72
2023-02-11T19:05:26.112Z,61.18
2023-02-11T19:07:59.838Z,61.52
2023-02-11T19:10:29.176Z,61.07
2023-02-11T19:12:59.402Z,61.03
2023-02-11T19:15:28.911Z,60.75
2023-02-11T19:17:59.133Z,60.27
2023-02-11T19:20:33.514Z,60.87
2023-02-11T19:23:03.826Z,60.36
2023-02-11T19:25:36.570Z,60.42
2023-02-11T19:28:07.781Z,60.77
2023-02-11T19:30:44.428Z,60.15
2023-02-11T19:33:16.391Z,60.50
2023-02-11T19:35:45.592Z,60.62
2023-02-11T19:38:15.844Z,60.71
2023-02-11T19:40:45.218Z,60.56
2023-02-11T19:43:14.103Z,60.62
2023-02-11T19:45:43.886Z,60.68
2023-02-11T19:48:15.692Z,60.86
2023-02-11T19:50:47.335Z,60.84
2023-02-11T19:53:16.470Z,60.84
2023-02-11T19:55:45.331Z,61.12
2023-02-11T19:58:15.022Z,61.39
2023-02-11T20:00:44.989Z,61.88
2023-02-11T20:03:19.984Z,61.67
2023-02-11T20:05:48.866Z,61.95
2023-02-11T20:08:18.807Z,62.21
2023-02-11T20:10:50.380Z,62.56
2023-02-11T20:13:19.879Z,62.68
2023-02-11T20:15:48.489Z,62.74
2023-02-11T20:18:19.158Z,63.26
2023-02-11T20:20:48.233Z,63.52
2023-02-11T20:23:17.676Z,63.90
2023-02-11T20:25:47.337Z,64.30
2023-02-11T20:28:16.614Z,64.95
2023-02-11T20:30:45.197Z,65.38
2023-02-11T20:33:17.993Z,65.86
2023-02-11T20:35:57.299Z,65.99
2023-02-11T20:38:26.650Z,66.28
2023-02-11T20:40:55.836Z,66.67
2023-02-11T20:43:26.684Z,66.86
2023-02-11T20:45:57.325Z,67.31
2023-02-11T20:48:26.296Z,67.69
2023-02-11T20:50:56.231Z,67.95
2023-02-11T20:53:25.380Z,68.26
2023-02-11T20:55:54.763Z,68.76
2023-02-11T20:58:24.061Z,68.84
2023-02-11T21:00:53.750Z,69.16
2023-02-11T21:03:25.680Z,69.33
2023-02-11T21:06:00.941Z,69.73
2023-02-11T21:08:29.763Z,70.13
2023-02-11T21:10:58.293Z,70.27
2023-02-11T21:13:27.945Z,70.29
2023-02-11T21:15:58.718Z,70.56
2023-02-11T21:18:27.818Z,70.39
2023-02-11T21:20:57.734Z,70.52
2023-02-11T21:23:29.306Z,70.61
2023-02-11T21:25:58.968Z,71.06
2023-02-11T21:28:27.531Z,71.71
2023-02-11T21:31:01.154Z,72.17
2023-02-11T21:33:30.690Z,72.10
2023-02-11T21:36:01.365Z,72.05
2023-02-11T21:38:33.086Z,72.37
2023-02-11T21:41:04.588Z,72.79
2023-02-11T21:43:33.579Z,73.22
2023-02-11T21:46:02.382Z,73.65
2023-02-11T21:48:32.488Z,73.92
2023-02-11T21:51:04.823Z,74.54
2023-02-11T21:53:35.521Z,75.03
2023-02-11T21:56:07.014Z,76.03
2023-02-11T21:58:35.985Z,76.50
2023-02-11T22:01:12.836Z,77.37
2023-02-11T22:03:46.576Z,78.31
2023-02-11T22:06:17.465Z,78.55
2023-02-11T22:08:51.004Z,79.23
2023-02-11T22:11:23.634Z,79.53
2023-02-11T22:13:54.893Z,79.31
2023-02-11T22:16:24.505Z,80.10
2023-02-11T22:18:57.974Z,80.30
2023-02-11T22:21:29.293Z,80.42
2023-02-11T22:24:05.120Z,80.45
2023-02-11T22:26:34.545Z,81.15
2023-02-11T22:29:03.757Z,81.58
2023-02-11T22:31:34.787Z,81.48
2023-02-11T22:34:05.343Z,81.02
2023-02-11T22:36:35.298Z,81.31
2023-02-11T22:39:08.304Z,81.37
2023-02-11T22:41:38.321Z,81.24
2023-02-11T22:44:06.800Z,81.27
2023-02-11T22:46:35.586Z,81.55
2023-02-11T22:49:04.584Z,82.07
2023-02-11T22:51:33.353Z,82.22
2023-02-11T22:54:07.054Z,81.93
2023-02-11T22:56:37.164Z,81.92
2023-02-11T22:59:10.304Z,82.14
2023-02-11T23:01:39.034Z,82.67
2023-02-11T23:04:09.805Z,82.74
2023-02-11T23:06:38.521Z,82.37
2023-02-11T23:09:09.717Z,82.22
2023-02-11T23:11:39.103Z,82.88
2023-02-11T23:14:10.292Z,82.69
2023-02-11T23:16:40.578Z,82.49
2023-02-11T23:19:10.544Z,82.19
2023-02-11T23:21:40.975Z,82.78
2023-02-11T23:24:15.121Z,83.11
2023-02-11T23:26:44.244Z,83.12
2023-02-11T23:29:14.149Z,82.88
2023-02-11T23:31:46.470Z,83.12
2023-02-11T23:34:17.411Z,83.29
2023-02-11T23:36:45.985Z,83.31
2023-02-11T23:39:18.344Z,83.68
2023-02-11T23:41:47.585Z,83.71
2023-02-11T23:44:19.177Z,83.61
2023-02-11T23:46:47.701Z,83.38
2023-02-11T23:49:20.880Z,83.55
2023-02-11T23:51:49.739Z,84.10
2023-02-11T23:54:19.709Z,83.69
2023-02-11T23:56:48.263Z,84.30
2023-02-11T23:59:17.078Z,84.50
